createdAt,value
2022-08-05T00:01:36.112Z,17.52
2022-08-05T00:04:18.073Z,17.49
2022-08-05T00:06:51.857Z,17.46
2022-08-05T00:09:20.497Z,17.43
2022-08-05T00:11:55.773Z,17.39
2022-08-05T00:14:29.136Z,17.36
2022-08-05T00:16:58.267Z,17.31
2022-08-05T00:19:33.761Z,17.27
2022-08-05T00:22:15.510Z,17.24
2022-08-05T00:24:46.092Z,17.21
2022-08-05T00:27:28.491Z,17.19
2022-08-05T00:30:05.567Z,17.17
2022-08-05T00:32:40.486Z,17.14
2022-08-05T00:35:08.894Z,17.13
2022-08-05T00:37:52.337Z,17.14
2022-08-05T00:40:28.375Z,17.13
2022-08-05T00:43:02.793Z,17.11
2022-08-05T00:45:43.601Z,17.07
2022-08-05T00:48:18.570Z,17.04
2022-08-05T00:51:01.048Z,17.02
2022-08-05T00:53:45.178Z,16.98
2022-08-05T00:56:25.246Z,16.93
2022-08-05T00:58:53.645Z,16.88
2022-08-05T01:01:24.730Z,16.85
2022-08-05T01:04:14.214Z,16.79
2022-08-05T01:06:43.728Z,16.76
2022-08-05T01:09:17.388Z,16.74
2022-08-05T01:11:51.769Z,16.72
2022-08-05T01:14:30.637Z,16.73
2022-08-05T01:17:09.240Z,16.72
2022-08-05T01:20:01.317Z,16.70
2022-08-05T01:22:57.393Z,16.67
2022-08-05T01:25:41.652Z,16.62
2022-08-05T01:28:12.851Z,16.57
2022-08-05T01:30:50.655Z,16.53
2022-08-05T01:33:35.547Z,16.47
2022-08-05T01:36:13.001Z,16.41
2022-08-05T01:38:49.903Z,16.34
2022-08-05T01:41:25.671Z,16.28
2022-08-05T01:43:57.128Z,16.25
2022-08-05T01:46:42.313Z,16.25
2022-08-05T01:49:23.694Z,16.23
2022-08-05T01:52:01.306Z,16.17
2022-08-05T01:54:45.844Z,16.13
2022-08-05T01:58:18.883Z,16.09
2022-08-05T02:00:13.691Z,16.02
2022-08-05T02:02:54.462Z,15.98
2022-08-05T02:05:29.579Z,15.94
2022-08-05T02:08:01.342Z,15.92
2022-08-05T02:10:36.851Z,15.92
2022-08-05T02:13:36.443Z,15.90
2022-08-05T02:16:30.580Z,15.89
2022-08-05T02:19:07.104Z,15.87
2022-08-05T02:21:37.951Z,15.80
2022-08-05T02:24:19.041Z,15.73
2022-08-05T02:26:56.722Z,15.69
2022-08-05T02:29:58.897Z,15.64
2022-08-05T02:32:24.255Z,15.57
2022-08-05T02:35:13.734Z,15.56
2022-08-05T02:37:47.762Z,15.48
2022-08-05T02:40:24.523Z,15.42
2022-08-05T02:42:55.776Z,15.36
2022-08-05T02:45:26.313Z,15.30
2022-08-05T02:48:11.617Z,15.25
2022-08-05T02:50:44.423Z,15.20
2022-08-05T02:53:19.229Z,15.18
2022-08-05T02:55:54.885Z,15.17
2022-08-05T02:58:30.334Z,15.14
2022-08-05T03:01:02.286Z,15.14
2022-08-05T03:03:34.070Z,15.17
2022-08-05T03:06:56.160Z,15.16
2022-08-05T03:09:17.530Z,15.16
2022-08-05T03:11:56.392Z,15.19
2022-08-05T03:14:29.273Z,15.21
2022-08-05T03:16:59.136Z,15.21
2022-08-05T03:19:33.704Z,15.22
2022-08-05T03:22:04.674Z,15.22
2022-08-05T03:24:33.736Z,15.22
2022-08-05T03:27:03.458Z,15.21
2022-08-05T03:29:44.738Z,15.22
2022-08-05T03:32:31.027Z,15.24
2022-08-05T03:35:00.166Z,15.27
2022-08-05T03:37:30.995Z,15.30
2022-08-05T03:40:11.808Z,15.32
2022-08-05T03:42:51.530Z,15.35
2022-08-05T03:45:22.977Z,15.38
2022-08-05T03:47:56.893Z,15.39
2022-08-05T03:50:33.841Z,15.43
2022-08-05T03:55:06.889Z,15.47
2022-08-05T03:56:17.161Z,15.50
2022-08-05T03:58:57.430Z,15.58
2022-08-05T04:01:29.086Z,15.63
2022-08-05T04:04:09.912Z,15.68
2022-08-05T04:06:47.544Z,15.75
2022-08-05T04:09:25.881Z,15.81
2022-08-05T04:11:57.124Z,15.87
2022-08-05T04:14:30.053Z,15.92
2022-08-05T04:17:00.888Z,15.96
2022-08-05T04:19:31.277Z,16.03
2022-08-05T04:22:08.280Z,16.08
2022-08-05T04:24:52.720Z,16.08
2022-08-05T04:27:42.026Z,16.11
2022-08-05T04:30:10.292Z,16.13
2022-08-05T04:32:39.085Z,16.20
2022-08-05T04:35:17.544Z,16.26
2022-08-05T04:38:00.988Z,16.33
2022-08-05T04:40:35.358Z,16.38
2022-08-05T04:43:06.877Z,16.43
2022-08-05T04:45:47.950Z,16.53
2022-08-05T04:48:27.601Z,16.63
2022-08-05T04:51:03.722Z,16.72
2022-08-05T04:53:40.323Z,16.79
2022-08-05T04:56:32.202Z,16.87
2022-08-05T04:58:57.272Z,16.93
2022-08-05T05:02:08.337Z,16.99
2022-08-05T05:04:13.284Z,17.07
2022-08-05T05:06:44.828Z,17.10
2022-08-05T05:09:18.330Z,17.17
2022-08-05T05:11:54.416Z,17.26
2022-08-05T05:14:31.504Z,17.37
2022-08-05T05:17:00.971Z,17.47
2022-08-05T05:19:37.194Z,17.57
2022-08-05T05:22:22.989Z,17.66
2022-08-05T05:24:57.214Z,17.77
2022-08-05T05:27:44.331Z,17.83
2022-08-05T05:30:31.443Z,17.90
2022-08-05T05:33:15.993Z,17.96
2022-08-05T05:35:47.340Z,18.05
2022-08-05T05:38:22.824Z,18.13
2022-08-05T05:40:57.257Z,18.25
2022-08-05T05:43:54.384Z,18.37
2022-08-05T05:46:17.405Z,18.51
2022-08-05T05:48:48.855Z,18.62
2022-08-05T05:51:25.655Z,18.75
2022-08-05T05:53:59.565Z,18.88
2022-08-05T05:56:33.021Z,19.01
2022-08-05T05:59:06.803Z,19.16
2022-08-05T06:01:39.487Z,19.32
2022-08-05T06:04:11.785Z,19.49
2022-08-05T06:06:43.106Z,19.65
2022-08-05T06:09:25.685Z,19.79
2022-08-05T06:11:59.438Z,19.94
2022-08-05T06:14:31.906Z,20.08
2022-08-05T06:17:22.346Z,20.24
2022-08-05T06:19:56.648Z,20.41
2022-08-05T06:22:33.349Z,20.53
2022-08-05T06:25:25.305Z,20.67
2022-08-05T06:28:10.501Z,20.84
2022-08-05T06:30:43.700Z,21.02
2022-08-05T06:33:11.765Z,21.18
2022-08-05T06:36:09.261Z,21.36
2022-08-05T06:38:37.227Z,21.55
2022-08-05T06:41:08.203Z,21.73
2022-08-05T06:43:57.835Z,21.88
2022-08-05T06:46:29.853Z,21.97
2022-08-05T06:49:01.875Z,22.16
2022-08-05T06:51:35.770Z,22.29
2022-08-05T06:54:11.924Z,22.42
2022-08-05T06:56:55.154Z,22.56
2022-08-05T06:59:42.247Z,22.73
2022-08-05T07:02:17.479Z,22.80
2022-08-05T07:04:51.884Z,22.92
2022-08-05T07:07:24.187Z,23.05
2022-08-05T07:10:05.016Z,23.15
2022-08-05T07:12:54.552Z,23.17
2022-08-05T07:16:00.849Z,23.29
2022-08-05T07:18:33.025Z,23.31
2022-08-05T07:21:04.650Z,23.45
2022-08-05T07:23:35.288Z,23.53
2022-08-05T07:26:09.438Z,23.65
2022-08-05T07:28:44.539Z,23.73
2022-08-05T07:31:13.472Z,23.86
2022-08-05T07:33:45.445Z,23.85
2022-08-05T07:36:21.550Z,24.03
2022-08-05T07:38:54.758Z,24.17
2022-08-05T07:42:13.302Z,24.31
2022-08-05T07:44:18.485Z,24.49
2022-08-05T07:46:50.123Z,24.52
2022-08-05T07:49:21.249Z,24.61
2022-08-05T07:51:53.659Z,24.78
2022-08-05T07:54:30.255Z,24.89
2022-08-05T07:57:14.569Z,24.97
2022-08-05T07:59:52.025Z,25.09
2022-08-05T08:02:30.911Z,25.14
2022-08-05T08:05:16.214Z,25.19
2022-08-05T08:07:59.473Z,25.29
2022-08-05T08:10:30.380Z,25.44
2022-08-05T08:13:01.502Z,25.47
2022-08-05T08:16:33.538Z,25.58
2022-08-05T08:18:20.853Z,25.83
2022-08-05T08:21:02.390Z,25.99
2022-08-05T08:24:02.399Z,26.07
2022-08-05T08:26:26.537Z,26.20
2022-08-05T08:29:21.894Z,26.33
2022-08-05T08:31:51.625Z,26.50
2022-08-05T08:34:30.358Z,26.71
2022-08-05T08:37:04.842Z,26.85
2022-08-05T08:39:37.601Z,27.02
2022-08-05T08:42:33.936Z,27.17
2022-08-05T08:45:18.466Z,27.27
2022-08-05T08:48:12.317Z,27.46
2022-08-05T08:51:04.011Z,27.65
2022-08-05T08:53:40.293Z,27.69
2022-08-05T08:56:15.440Z,27.79
2022-08-05T08:58:48.597Z,27.84
2022-08-05T09:01:19.758Z,28.02
2022-08-05T09:03:57.302Z,28.17
2022-08-05T09:06:30.390Z,28.36
2022-08-05T09:09:02.099Z,28.57
2022-08-05T09:11:50.909Z,28.66
2022-08-05T09:14:56.937Z,28.82
2022-08-05T09:17:41.354Z,29.02
2022-08-05T09:20:08.498Z,29.19
2022-08-05T09:23:18.451Z,29.23
2022-08-05T09:26:06.260Z,29.16
2022-08-05T09:28:39.779Z,29.18
2022-08-05T09:31:44.087Z,29.18
2022-08-05T09:34:11.689Z,29.38
2022-08-05T09:36:55.106Z,29.50
2022-08-05T09:39:41.187Z,29.73
2022-08-05T09:42:30.131Z,29.69
2022-08-05T09:46:05.286Z,29.58
2022-08-05T09:47:58.192Z,29.78
2022-08-05T09:50:44.820Z,30.02
2022-08-05T09:53:22.888Z,30.15
2022-08-05T09:56:04.800Z,30.37
2022-08-05T09:58:42.356Z,30.72
2022-08-05T10:01:15.664Z,30.90
2022-08-05T10:04:16.032Z,31.09
2022-08-05T10:06:58.818Z,31.49
2022-08-05T10:09:29.963Z,31.38
2022-08-05T10:12:18.925Z,31.66
2022-08-05T10:15:34.158Z,31.75
2022-08-05T10:18:38.901Z,31.76
2022-08-05T10:21:15.790Z,31.73
2022-08-05T10:23:59.467Z,31.98
2022-08-05T10:26:31.596Z,32.29
2022-08-05T10:29:04.471Z,32.11
2022-08-05T10:32:52.051Z,32.11
2022-08-05T10:34:25.817Z,32.38
2022-08-05T10:36:59.981Z,33.11
2022-08-05T10:40:03.987Z,33.18
2022-08-05T10:42:32.449Z,33.31
2022-08-05T10:45:21.311Z,33.39
2022-08-05T10:48:52.365Z,33.88
2022-08-05T10:51:29.167Z,33.95
2022-08-05T10:54:28.360Z,34.08
2022-08-05T10:57:00.962Z,34.38
2022-08-05T11:00:02.570Z,34.49
2022-08-05T11:02:38.282Z,34.41
2022-08-05T11:05:10.509Z,34.10
2022-08-05T11:08:33.656Z,34.20
2022-08-05T11:11:00.976Z,34.85
2022-08-05T11:13:58.067Z,34.86
2022-08-05T11:16:33.729Z,35.42
2022-08-05T11:20:11.258Z,35.78
2022-08-05T11:22:42.343Z,35.96
2022-08-05T11:26:05.895Z,35.98
2022-08-05T11:28:19.660Z,35.56
2022-08-05T11:30:58.389Z,35.72
2022-08-05T11:33:43.946Z,35.90
2022-08-05T11:36:34.465Z,35.86
2022-08-05T11:39:11.272Z,35.80
2022-08-05T11:42:01.789Z,35.75
2022-08-05T11:44:53.611Z,36.44
2022-08-05T11:47:49.011Z,36.28
2022-08-05T11:50:15.803Z,36.33
2022-08-05T11:52:48.438Z,36.50
2022-08-05T11:55:20.871Z,36.70
2022-08-05T11:58:10.030Z,36.27
2022-08-05T12:00:41.500Z,36.81
2022-08-05T12:03:31.911Z,37.32
2022-08-05T12:06:06.415Z,37.37
2022-08-05T12:08:47.935Z,37.15
2022-08-05T12:11:28.250Z,37.63
2022-08-05T12:14:10.056Z,37.67
2022-08-05T12:16:41.174Z,37.22
2022-08-05T12:20:17.235Z,37.57
2022-08-05T12:22:12.844Z,37.04
2022-08-05T12:24:50.544Z,36.73
2022-08-05T12:27:26.033Z,37.26
2022-08-05T12:30:10.593Z,37.16
2022-08-05T12:32:53.718Z,37.93
2022-08-05T12:35:37.222Z,38.30
2022-08-05T12:38:10.266Z,38.45
2022-08-05T12:40:43.527Z,38.74
2022-08-05T12:43:21.074Z,38.63
2022-08-05T12:45:56.715Z,38.51
2022-08-05T12:48:32.679Z,38.43
2022-08-05T12:51:21.657Z,37.96
2022-08-05T12:54:16.843Z,38.07
2022-08-05T12:56:54.274Z,38.32
2022-08-05T13:00:08.878Z,38.94
2022-08-05T13:02:30.825Z,39.51
2022-08-05T13:04:59.188Z,39.54
2022-08-05T13:10:19.931Z,39.21
2022-08-05T13:12:57.975Z,39.17
2022-08-05T13:15:49.220Z,39.38
2022-08-05T13:18:20.786Z,39.27
2022-08-05T13:20:49.876Z,39.41
2022-08-05T13:23:22.876Z,39.36
2022-08-05T13:25:59.497Z,38.98
2022-08-05T13:28:32.301Z,39.81
2022-08-05T13:31:10.917Z,39.97
2022-08-05T13:34:22.109Z,39.58
2022-08-05T13:36:33.689Z,39.77
2022-08-05T13:39:08.355Z,39.93
2022-08-05T13:41:38.348Z,40.11
2022-08-05T13:44:08.058Z,40.57
2022-08-05T13:47:01.970Z,40.06
2022-08-05T13:49:26.705Z,40.48
2022-08-05T13:51:57.481Z,40.82
2022-08-05T13:54:27.309Z,40.31
2022-08-05T13:56:55.406Z,40.95
2022-08-05T13:59:27.150Z,41.05
2022-08-05T14:02:00.104Z,40.08
2022-08-05T14:04:50.069Z,40.51
2022-08-05T14:08:00.498Z,41.14
2022-08-05T14:10:28.048Z,41.32
2022-08-05T14:12:57.474Z,40.58
2022-08-05T14:16:07.366Z,41.50
2022-08-05T14:18:18.199Z,41.77
2022-08-05T14:20:48.572Z,41.76
2022-08-05T14:23:25.208Z,40.81
2022-08-05T14:25:57.949Z,40.95
2022-08-05T14:28:30.680Z,41.58
2022-08-05T14:31:01.414Z,41.86
2022-08-05T14:33:32.496Z,41.29
2022-08-05T14:36:21.749Z,39.98
2022-08-05T14:38:51.357Z,39.47
2022-08-05T14:41:20.360Z,40.91
2022-08-05T14:44:02.023Z,41.69
2022-08-05T14:46:35.529Z,41.48
2022-08-05T14:49:07.180Z,40.30
2022-08-05T14:51:42.439Z,40.66
2022-08-05T14:54:26.371Z,41.91
2022-08-05T14:57:05.134Z,41.91
2022-08-05T14:59:41.086Z,42.38
2022-08-05T15:02:14.898Z,42.43
2022-08-05T15:04:44.946Z,42.25
2022-08-05T15:08:06.238Z,41.67
2022-08-05T15:10:09.892Z,41.58
2022-08-05T15:12:58.051Z,42.12
2022-08-05T15:15:55.723Z,41.96
2022-08-05T15:18:19.454Z,42.18
2022-08-05T15:20:47.810Z,41.90
2022-08-05T15:23:16.466Z,42.52
2022-08-05T15:25:52.181Z,43.30
2022-08-05T15:28:27.815Z,42.83
2022-08-05T15:30:59.406Z,42.44
2022-08-05T15:34:04.495Z,42.40
2022-08-05T15:36:24.301Z,42.15
2022-08-05T15:40:59.775Z,42.38
2022-08-05T15:41:56.247Z,42.67
2022-08-05T15:44:30.141Z,42.96
2022-08-05T15:47:01.828Z,42.26
2022-08-05T15:49:53.592Z,41.72
2022-08-05T15:52:52.902Z,39.99
2022-08-05T15:55:24.805Z,39.27
2022-08-05T15:58:16.868Z,39.36
2022-08-05T16:01:03.612Z,39.64
2022-08-05T16:03:33.975Z,40.15
2022-08-05T16:06:02.532Z,41.11
2022-08-05T16:08:37.961Z,40.92
2022-08-05T16:11:11.723Z,41.16
2022-08-05T16:13:42.416Z,40.32
2022-08-05T16:16:15.376Z,41.14
2022-08-05T16:19:03.799Z,40.74
2022-08-05T16:21:42.943Z,40.17
2022-08-05T16:24:41.655Z,39.60
2022-08-05T16:27:46.742Z,38.37
2022-08-05T16:30:25.867Z,38.02
2022-08-05T16:32:54.931Z,37.89
2022-08-05T16:35:28.625Z,37.98
2022-08-05T16:38:24.632Z,38.53
2022-08-05T16:40:55.209Z,38.03
2022-08-05T16:43:31.430Z,38.17
2022-08-05T16:46:23.899Z,38.21
2022-08-05T16:48:51.944Z,37.96
2022-08-05T16:51:20.871Z,38.27
2022-08-05T16:54:04.215Z,38.24
2022-08-05T16:56:41.682Z,37.56
2022-08-05T16:59:30.656Z,37.35
2022-08-05T17:02:00.960Z,37.02
2022-08-05T17:04:31.935Z,36.73
2022-08-05T17:07:03.537Z,36.22
2022-08-05T17:09:58.335Z,35.49
2022-08-05T17:12:50.910Z,35.45
2022-08-05T17:15:19.485Z,35.48
2022-08-05T17:17:54.774Z,35.32
2022-08-05T17:20:23.261Z,34.85
2022-08-05T17:22:55.700Z,33.85
2022-08-05T17:25:39.644Z,33.31
2022-08-05T17:28:10.155Z,32.97
2022-08-05T17:30:50.601Z,32.53
2022-08-05T17:33:21.466Z,32.10
2022-08-05T17:36:08.454Z,31.70
2022-08-05T17:38:39.917Z,31.41
2022-08-05T17:41:22.753Z,31.09
2022-08-05T17:43:58.061Z,30.80
2022-08-05T17:46:26.257Z,30.51
2022-08-05T17:48:55.424Z,30.33
2022-08-05T17:51:26.652Z,30.15
2022-08-05T17:53:56.103Z,29.97
2022-08-05T17:56:28.663Z,29.78
2022-08-05T17:58:57.127Z,29.62
2022-08-05T18:01:26.390Z,29.48
2022-08-05T18:04:04.038Z,29.28
2022-08-05T18:06:34.304Z,29.10
2022-08-05T18:09:03.791Z,28.93
2022-08-05T18:11:33.572Z,28.78
2022-08-05T18:14:13.563Z,28.65
2022-08-05T18:16:51.819Z,28.51
2022-08-05T18:19:22.739Z,28.36
2022-08-05T18:22:07.229Z,28.28
2022-08-05T18:24:39.385Z,28.18
2022-08-05T18:27:12.889Z,28.09
2022-08-05T18:29:54.337Z,27.98
2022-08-05T18:32:28.471Z,27.88
2022-08-05T18:34:58.445Z,27.75
2022-08-05T18:37:34.768Z,27.61
2022-08-05T18:40:34.425Z,27.47
2022-08-05T18:43:00.512Z,27.32
2022-08-05T18:45:41.848Z,27.19
2022-08-05T18:48:12.068Z,27.07
2022-08-05T18:52:04.619Z,26.93
2022-08-05T18:54:05.900Z,26.73
2022-08-05T18:56:35.561Z,26.57
2022-08-05T18:59:42.131Z,26.39
2022-08-05T19:01:58.081Z,26.18
2022-08-05T19:04:27.182Z,25.94
2022-08-05T19:06:55.272Z,25.77
2022-08-05T19:09:23.939Z,25.60
2022-08-05T19:12:00.362Z,25.44
2022-08-05T19:14:53.450Z,25.29
2022-08-05T19:17:19.813Z,25.16
2022-08-05T19:19:50.828Z,25.05
2022-08-05T19:22:22.749Z,24.95
2022-08-05T19:25:00.759Z,24.84
2022-08-05T19:27:31.930Z,24.73
2022-08-05T19:30:02.835Z,24.61
2022-08-05T19:32:31.440Z,24.53
2022-08-05T19:35:05.895Z,24.45
2022-08-05T19:38:04.182Z,24.36
2022-08-05T19:40:24.336Z,24.25
2022-08-05T19:43:05.513Z,24.16
2022-08-05T19:45:37.239Z,24.06
2022-08-05T19:48:06.434Z,23.95
2022-08-05T19:50:35.387Z,23.87
2022-08-05T19:53:09.452Z,23.78
2022-08-05T19:56:13.686Z,23.68
2022-08-05T19:58:30.313Z,23.58
2022-08-05T20:00:59.034Z,23.49
2022-08-05T20:03:27.501Z,23.43
2022-08-05T20:06:14.846Z,23.35
2022-08-05T20:08:47.506Z,23.29
2022-08-05T20:11:19.663Z,23.23
2022-08-05T20:13:59.039Z,23.18
2022-08-05T20:16:38.962Z,23.11
2022-08-05T20:19:07.171Z,23.05
2022-08-05T20:21:37.854Z,22.98
2022-08-05T20:24:07.309Z,22.92
2022-08-05T20:26:39.915Z,22.84
2022-08-05T20:29:26.792Z,22.77
2022-08-05T20:31:58.390Z,22.67
2022-08-05T20:34:28.089Z,22.59
2022-08-05T20:36:56.422Z,22.52
2022-08-05T20:39:36.596Z,22.43
2022-08-05T20:42:07.082Z,22.34
2022-08-05T20:44:40.062Z,22.25
2022-08-05T20:47:09.199Z,22.14
2022-08-05T20:49:40.415Z,22.05
2022-08-05T20:52:10.775Z,21.96
2022-08-05T20:54:58.975Z,21.88
2022-08-05T20:57:43.335Z,21.78
2022-08-05T21:00:41.452Z,21.69
2022-08-05T21:03:07.287Z,21.59
2022-08-05T21:05:53.524Z,21.53
2022-08-05T21:08:42.237Z,21.47
2022-08-05T21:11:15.121Z,21.42
2022-08-05T21:14:01.656Z,21.36
2022-08-05T21:16:32.404Z,21.31
2022-08-05T21:19:05.671Z,21.26
2022-08-05T21:21:44.589Z,21.21
2022-08-05T21:24:20.053Z,21.18
2022-08-05T21:26:53.285Z,21.13
2022-08-05T21:29:26.229Z,21.08
2022-08-05T21:31:55.813Z,21.03
2022-08-05T21:34:24.010Z,20.99
2022-08-05T21:36:53.718Z,20.93
2022-08-05T21:39:26.888Z,20.88
2022-08-05T21:42:02.304Z,20.82
2022-08-05T21:44:32.193Z,20.76
2022-08-05T21:47:00.934Z,20.71
2022-08-05T21:49:59.501Z,20.66
2022-08-05T21:52:28.388Z,20.60
2022-08-05T21:55:07.023Z,20.55
2022-08-05T21:57:42.630Z,20.49
2022-08-05T22:00:12.945Z,20.45
2022-08-05T22:02:42.712Z,20.42
2022-08-05T22:05:12.894Z,20.40
2022-08-05T22:07:58.241Z,20.39
2022-08-05T22:10:28.445Z,20.37
2022-08-05T22:12:59.222Z,20.37
2022-08-05T22:16:00.957Z,20.37
2022-08-05T22:18:35.907Z,20.37
2022-08-05T22:21:19.280Z,20.37
2022-08-05T22:24:12.986Z,20.35
2022-08-05T22:27:00.274Z,20.31
2022-08-05T22:29:30.523Z,20.25
2022-08-05T22:32:03.146Z,20.19
2022-08-05T22:34:32.946Z,20.11
2022-08-05T22:37:04.022Z,20.03
2022-08-05T22:39:34.812Z,19.99
2022-08-05T22:42:12.232Z,19.97
2022-08-05T22:44:48.342Z,19.93
2022-08-05T22:47:29.667Z,19.88
2022-08-05T22:50:19.392Z,19.82
2022-08-05T22:52:52.586Z,19.78
2022-08-05T22:55:23.520Z,19.73
2022-08-05T22:57:53.439Z,19.69
2022-08-05T23:00:23.249Z,19.64
2022-08-05T23:02:53.832Z,19.61
2022-08-05T23:05:23.554Z,19.56
2022-08-05T23:07:53.180Z,19.51
2022-08-05T23:10:23.595Z,19.49
2022-08-05T23:12:54.406Z,19.47
2022-08-05T23:15:26.899Z,19.45
2022-08-05T23:18:01.314Z,19.42
2022-08-05T23:20:32.791Z,19.38
2022-08-05T23:23:03.517Z,19.35
2022-08-05T23:25:53.628Z,19.29
2022-08-05T23:28:29.182Z,19.23
2022-08-05T23:31:16.522Z,19.17
2022-08-05T23:34:04.395Z,19.12
2022-08-05T23:36:38.383Z,19.08
2022-08-05T23:39:07.732Z,19.05
2022-08-05T23:41:37.398Z,19.02
2022-08-05T23:44:10.113Z,18.98
2022-08-05T23:46:39.390Z,18.95
2022-08-05T23:49:16.455Z,18.91
2022-08-05T23:52:05.527Z,18.87
2022-08-05T23:54:38.180Z,18.85
2022-08-05T23:57:08.150Z,18.81
